Time;durP1;ratioP1;P1;durP2;ratioP2;P2;SDS_P1;SDS_P2;PMS_P1;PMS_P2;Temp;Humidity;BMP_temperature;BMP_pressure;BME280_temperature;BME280_humidity;BME280_pressure;Samples;Min_cycle;Max_cycle;Signal;HPM_P1;HPM_P2
2021/07/01 00:02:22;;;;;;;;;;;16.10;92.20;;;;;;4997730;28;19923;-73
2021/07/01 00:04:47;;;;;;;;;;;16.20;91.80;;;;;;4997647;28;19943;-73
2021/07/01 00:07:13;;;;;;;;;;;16.20;91.70;;;;;;4997432;28;19927;-73
2021/07/01 00:09:38;;;;;;;;;;;16.20;91.60;;;;;;4997496;28;20016;-75
2021/07/01 00:12:04;;;;;;;;;;;16.20;91.40;;;;;;4997518;28;19922;-73
2021/07/01 00:14:29;;;;;;;;;;;16.20;91.40;;;;;;4996268;28;20383;-73
2021/07/01 00:16:55;;;;;;;;;;;16.20;91.50;;;;;;4997471;28;19925;-73
2021/07/01 00:19:21;;;;;;;;;;;16.20;91.60;;;;;;4997238;28;19942;-73
2021/07/01 00:21:46;;;;;;;;;;;16.10;91.70;;;;;;4996207;28;19938;-74
2021/07/01 00:24:12;;;;;;;;;;;16.10;91.80;;;;;;4996141;28;20464;-74
2021/07/01 00:26:37;;;;;;;;;;;16.10;91.80;;;;;;4997361;28;19953;-73
2021/07/01 00:29:03;;;;;;;;;;;16.00;92.00;;;;;;4997204;28;19927;-73
2021/07/01 00:31:30;;;;;;;;;;;16.00;92.00;;;;;;4995777;28;20030;-74
2021/07/01 00:33:56;;;;;;;;;;;16.00;91.80;;;;;;4997063;28;19931;-73
2021/07/01 00:36:22;;;;;;;;;;;15.90;91.90;;;;;;4997087;28;19920;-74
2021/07/01 00:38:50;;;;;;;;;;;15.80;92.10;;;;;;4996960;28;19947;-74
2021/07/01 00:41:15;;;;;;;;;;;15.80;92.30;;;;;;4997140;28;19963;-73
2021/07/01 00:43:41;;;;;;;;;;;15.80;92.20;;;;;;4996683;28;19972;-74
2021/07/01 00:46:08;;;;;;;;;;;15.90;92.00;;;;;;4996660;28;19930;-73
2021/07/01 00:48:34;;;;;;;;;;;16.00;91.80;;;;;;5007026;28;19932;-74
2021/07/01 00:50:59;;;;;;;;;;;16.00;91.70;;;;;;5016484;28;20013;-74
2021/07/01 00:53:26;;;;;;;;;;;16.00;91.60;;;;;;5015146;28;20406;-74
2021/07/01 00:55:52;;;;;;;;;;;15.90;91.80;;;;;;5014769;28;19949;-73
2021/07/01 00:58:17;;;;;;;;;;;15.90;91.80;;;;;;5016208;28;19948;-74
2021/07/01 01:03:09;;;;;;;;;;;15.90;91.80;;;;;;5016468;28;19977;-73
2021/07/01 01:05:34;;;;;;;;;;;15.80;92.00;;;;;;5016301;28;19923;-74
2021/07/01 01:08:00;;;;;;;;;;;15.70;92.10;;;;;;5014698;28;19921;-73
2021/07/01 01:10:26;;;;;;;;;;;15.60;92.30;;;;;;5015915;28;20033;-74
2021/07/01 01:12:51;;;;;;;;;;;15.60;92.50;;;;;;5016071;28;20397;-74
2021/07/01 01:15:17;;;;;;;;;;;15.60;92.40;;;;;;5015947;28;20292;-73
2021/07/01 01:17:44;;;;;;;;;;;15.70;92.20;;;;;;5016009;28;19942;-73
2021/07/01 01:20:09;;;;;;;;;;;15.70;92.00;;;;;;5015565;28;19927;-74
2021/07/01 01:22:35;;;;;;;;;;;15.60;91.80;;;;;;5015608;28;19936;-73
2021/07/01 01:25:00;;;;;;;;;;;15.50;92.00;;;;;;5015839;28;19923;-73
2021/07/01 01:27:26;;;;;;;;;;;15.50;92.00;;;;;;5015723;28;19934;-74
2021/07/01 01:29:52;;;;;;;;;;;15.50;91.90;;;;;;5014419;28;19933;-73
2021/07/01 01:32:17;;;;;;;;;;;15.50;92.00;;;;;;5015975;28;20307;-73
2021/07/01 01:34:43;;;;;;;;;;;15.30;92.30;;;;;;5015455;28;19946;-74
2021/07/01 01:37:08;;;;;;;;;;;15.30;92.20;;;;;;5014324;28;20386;-73
2021/07/01 01:39:34;;;;;;;;;;;15.40;92.20;;;;;;5014386;28;20370;-74
2021/07/01 01:41:59;;;;;;;;;;;15.40;92.00;;;;;;5015595;28;19977;-73
2021/07/01 01:44:25;;;;;;;;;;;15.40;92.00;;;;;;5015378;28;19924;-73
2021/07/01 01:46:50;;;;;;;;;;;15.50;91.90;;;;;;5015130;28;20301;-74
2021/07/01 01:49:17;;;;;;;;;;;15.50;91.90;;;;;;4998982;28;19935;-73
2021/07/01 01:51:43;;;;;;;;;;;15.50;91.90;;;;;;4995690;28;19920;-74
2021/07/01 01:54:08;;;;;;;;;;;15.60;91.80;;;;;;4995726;28;19945;-73
2021/07/01 01:56:37;;;;;;;;;;;15.60;91.80;;;;;;4994894;28;20333;-73
2021/07/01 01:59:06;;;;;;;;;;;15.60;91.80;;;;;;4993993;28;20038;-73
2021/07/01 02:01:32;;;;;;;;;;;15.50;91.90;;;;;;4995547;28;19928;-73
2021/07/01 02:03:57;;;;;;;;;;;15.60;91.90;;;;;;4995457;28;20003;-74
2021/07/01 02:06:23;;;;;;;;;;;15.60;92.00;;;;;;4994306;28;19950;-74
2021/07/01 02:08:48;;;;;;;;;;;15.60;91.90;;;;;;4994232;28;19976;-74
2021/07/01 02:11:14;;;;;;;;;;;15.60;91.90;;;;;;4995111;28;19923;-73
2021/07/01 02:13:39;;;;;;;;;;;15.60;91.90;;;;;;4994127;28;19927;-73
2021/07/01 02:16:05;;;;;;;;;;;15.60;91.90;;;;;;4995205;28;19922;-73
2021/07/01 02:18:30;;;;;;;;;;;15.50;92.00;;;;;;4995195;28;19944;-74
2021/07/01 02:20:56;;;;;;;;;;;15.50;92.00;;;;;;4995135;28;19938;-74
2021/07/01 02:23:21;;;;;;;;;;;15.40;92.20;;;;;;4994860;28;19925;-74
2021/07/01 02:25:47;;;;;;;;;;;15.50;92.20;;;;;;4977622;28;19935;-73
2021/07/01 02:28:12;;;;;;;;;;;15.50;92.20;;;;;;4995015;28;19927;-74
2021/07/01 02:30:38;;;;;;;;;;;15.50;92.20;;;;;;4994897;28;19927;-74
2021/07/01 02:33:03;;;;;;;;;;;15.40;92.10;;;;;;4995063;28;19929;-72
2021/07/01 02:35:29;;;;;;;;;;;15.50;92.00;;;;;;4993465;28;19931;-73
2021/07/01 02:37:54;;;;;;;;;;;15.50;92.00;;;;;;4994765;28;19942;-74
2021/07/01 02:40:20;;;;;;;;;;;15.50;91.90;;;;;;4994905;28;19920;-74
2021/07/01 02:42:45;;;;;;;;;;;15.50;91.90;;;;;;4994660;28;20457;-72
2021/07/01 02:45:11;;;;;;;;;;;15.40;91.90;;;;;;4993614;28;19922;-73
2021/07/01 02:47:37;;;;;;;;;;;15.30;92.10;;;;;;4996967;28;19926;-73
2021/07/01 02:50:03;;;;;;;;;;;15.30;92.30;;;;;;5013125;28;19923;-73
2021/07/01 02:52:28;;;;;;;;;;;15.30;92.30;;;;;;5014470;28;20295;-74
2021/07/01 02:54:54;;;;;;;;;;;15.30;92.20;;;;;;5013949;28;19936;-73
2021/07/01 02:57:19;;;;;;;;;;;15.30;92.20;;;;;;5013965;28;19955;-73
2021/07/01 02:59:45;;;;;;;;;;;15.40;92.10;;;;;;5012838;28;19985;-73
2021/07/01 03:02:12;;;;;;;;;;;15.30;92.00;;;;;;5014167;28;20012;-73
2021/07/01 03:04:37;;;;;;;;;;;15.30;92.00;;;;;;5014178;28;19955;-73
2021/07/01 03:07:03;;;;;;;;;;;15.20;91.90;;;;;;5013746;28;19963;-73
2021/07/01 03:09:28;;;;;;;;;;;15.20;92.10;;;;;;5013469;28;19929;-73
2021/07/01 03:11:54;;;;;;;;;;;15.20;92.10;;;;;;5012838;28;20380;-74
2021/07/01 03:14:19;;;;;;;;;;;15.20;92.00;;;;;;5014058;28;19959;-74
2021/07/01 03:16:45;;;;;;;;;;;15.20;92.00;;;;;;5013937;28;19924;-73
2021/07/01 03:19:10;;;;;;;;;;;15.20;92.00;;;;;;5012612;28;19956;-74
2021/07/01 03:21:36;;;;;;;;;;;15.10;92.00;;;;;;5013849;28;19927;-74
2021/07/01 03:24:01;;;;;;;;;;;15.20;92.00;;;;;;5013861;28;19932;-73
2021/07/01 03:26:27;;;;;;;;;;;15.20;91.90;;;;;;5012747;28;19924;-73
2021/07/01 03:28:52;;;;;;;;;;;15.20;92.10;;;;;;5013825;28;20405;-73
2021/07/01 03:31:18;;;;;;;;;;;15.10;92.30;;;;;;5012547;28;19920;-73
2021/07/01 03:33:43;;;;;;;;;;;15.10;92.40;;;;;;5013754;28;19976;-73
2021/07/01 03:36:09;;;;;;;;;;;15.00;92.20;;;;;;5013781;28;19927;-73
2021/07/01 03:38:35;;;;;;;;;;;15.00;92.40;;;;;;5012532;28;19946;-74
2021/07/01 03:41:01;;;;;;;;;;;15.00;92.30;;;;;;5013719;28;20013;-72
2021/07/01 03:43:27;;;;;;;;;;;14.90;92.10;;;;;;5013662;28;19956;-73
2021/07/01 03:45:52;;;;;;;;;;;14.90;92.10;;;;;;4996059;28;20453;-74
2021/07/01 03:48:19;;;;;;;;;;;14.90;92.00;;;;;;5005281;28;19972;-74
2021/07/01 03:50:45;;;;;;;;;;;14.90;92.00;;;;;;4994128;28;19922;-73
2021/07/01 03:53:10;;;;;;;;;;;14.80;92.10;;;;;;4993841;28;19943;-73
2021/07/01 03:55:36;;;;;;;;;;;14.70;92.30;;;;;;4993676;28;19924;-74
2021/07/01 03:58:01;;;;;;;;;;;14.70;92.30;;;;;;4992781;28;19951;-73
2021/07/01 04:00:27;;;;;;;;;;;14.70;92.30;;;;;;4992670;28;19928;-74
2021/07/01 04:02:53;;;;;;;;;;;14.60;92.20;;;;;;4992795;28;20279;-73
2021/07/01 04:05:18;;;;;;;;;;;14.70;92.10;;;;;;4993929;28;19978;-73
2021/07/01 04:07:44;;;;;;;;;;;14.70;92.20;;;;;;4976207;28;19929;-74
2021/07/01 04:10:11;;;;;;;;;;;14.60;92.40;;;;;;4993765;28;20403;-73
2021/07/01 04:12:37;;;;;;;;;;;14.50;92.40;;;;;;4992700;28;20279;-75
2021/07/01 04:15:03;;;;;;;;;;;14.60;92.40;;;;;;4992837;28;19994;-73
2021/07/01 04:17:28;;;;;;;;;;;14.60;92.30;;;;;;4992462;28;19927;-74
2021/07/01 04:19:54;;;;;;;;;;;14.50;92.10;;;;;;4995012;28;20382;-74
2021/07/01 04:22:19;;;;;;;;;;;14.60;92.20;;;;;;4996211;28;20022;-72
2021/07/01 04:24:45;;;;;;;;;;;14.50;92.10;;;;;;4996044;28;19929;-74
2021/07/01 04:27:10;;;;;;;;;;;14.60;92.10;;;;;;4996182;28;20415;-74
2021/07/01 04:29:36;;;;;;;;;;;14.60;92.10;;;;;;4996096;28;19977;-73
2021/07/01 04:32:01;;;;;;;;;;;14.60;92.00;;;;;;4996879;28;20416;-73
2021/07/01 04:34:27;;;;;;;;;;;14.60;92.10;;;;;;4997084;28;19925;-73
2021/07/01 04:36:52;;;;;;;;;;;14.60;92.10;;;;;;4995957;28;19977;-74
2021/07/01 04:39:18;;;;;;;;;;;14.60;92.20;;;;;;4997066;28;19942;-73
2021/07/01 04:41:43;;;;;;;;;;;14.60;92.20;;;;;;4995766;28;20426;-73
2021/07/01 04:44:09;;;;;;;;;;;14.60;92.00;;;;;;4996636;28;19977;-73
2021/07/01 04:46:34;;;;;;;;;;;14.50;92.20;;;;;;4995735;28;19930;-73
2021/07/01 04:49:00;;;;;;;;;;;14.60;92.20;;;;;;5009179;28;19934;-73
2021/07/01 04:51:26;;;;;;;;;;;14.70;92.10;;;;;;5015324;28;19978;-73
2021/07/01 04:53:51;;;;;;;;;;;14.80;92.10;;;;;;5015209;28;19940;-72
2021/07/01 04:56:17;;;;;;;;;;;14.80;92.00;;;;;;5015004;28;19953;-73
2021/07/01 04:58:42;;;;;;;;;;;14.80;91.90;;;;;;5016019;28;19945;-74
2021/07/01 05:01:08;;;;;;;;;;;14.80;91.80;;;;;;5016227;28;20059;-72
2021/07/01 05:03:33;;;;;;;;;;;14.70;91.90;;;;;;5015062;28;19923;-73
2021/07/01 05:05:59;;;;;;;;;;;14.60;92.00;;;;;;5016360;28;20386;-73
2021/07/01 05:08:24;;;;;;;;;;;14.50;92.30;;;;;;5016216;28;19920;-73
2021/07/01 05:10:50;;;;;;;;;;;14.50;92.30;;;;;;5015846;28;19929;-73
2021/07/01 05:13:15;;;;;;;;;;;14.60;92.50;;;;;;5016115;28;19929;-74
2021/07/01 05:15:41;;;;;;;;;;;14.60;92.40;;;;;;5014712;28;20385;-73
2021/07/01 05:18:06;;;;;;;;;;;14.70;92.30;;;;;;5014632;28;19979;-72
2021/07/01 05:20:32;;;;;;;;;;;14.80;92.50;;;;;;5015972;28;19999;-73
2021/07/01 05:22:57;;;;;;;;;;;14.80;92.20;;;;;;5015652;28;19929;-73
2021/07/01 05:25:23;;;;;;;;;;;14.80;92.20;;;;;;5015839;28;19967;-73
2021/07/01 05:27:48;;;;;;;;;;;14.90;92.20;;;;;;5015799;28;19927;-72
2021/07/01 05:30:14;;;;;;;;;;;15.00;92.00;;;;;;5014280;28;19925;-73
2021/07/01 05:32:40;;;;;;;;;;;14.90;92.00;;;;;;5013760;28;20370;-74
2021/07/01 05:35:05;;;;;;;;;;;15.00;92.10;;;;;;5015421;28;19925;-73
2021/07/01 05:37:31;;;;;;;;;;;15.10;92.10;;;;;;5015365;28;19931;-73
2021/07/01 05:39:56;;;;;;;;;;;15.10;92.00;;;;;;5014253;28;20343;-74
2021/07/01 05:42:22;;;;;;;;;;;15.20;91.90;;;;;;5014091;28;19928;-73
2021/07/01 05:44:47;;;;;;;;;;;15.30;91.80;;;;;;5016917;28;19924;-74
2021/07/01 05:47:13;;;;;;;;;;;15.30;91.80;;;;;;5016724;28;19927;-72
2021/07/01 05:49:39;;;;;;;;;;;15.30;91.70;;;;;;4997469;28;19975;-74
2021/07/01 05:52:06;;;;;;;;;;;15.40;91.90;;;;;;4995753;28;20395;-74
2021/07/01 05:57:00;;;;;;;;;;;15.60;91.60;;;;;;4995539;28;20373;-73
2021/07/01 05:59:25;;;;;;;;;;;15.80;91.60;;;;;;4994122;28;19945;-74
2021/07/01 06:01:51;;;;;;;;;;;15.90;91.30;;;;;;4995505;28;19969;-74
2021/07/01 06:04:17;;;;;;;;;;;16.10;91.30;;;;;;4994335;28;19935;-73
2021/07/01 06:06:50;;;;;;;;;;;16.20;91.10;;;;;;4994193;28;19926;-72
2021/07/01 06:09:16;;;;;;;;;;;16.20;91.20;;;;;;4995366;28;19936;-74
2021/07/01 06:11:41;;;;;;;;;;;16.20;91.30;;;;;;4995112;28;20007;-73
2021/07/01 06:14:07;;;;;;;;;;;16.30;91.30;;;;;;4994127;28;19969;-74
2021/07/01 06:16:33;;;;;;;;;;;16.40;91.30;;;;;;4995349;28;20016;-73
2021/07/01 06:18:58;;;;;;;;;;;16.60;91.30;;;;;;4993810;28;19944;-74
2021/07/01 06:21:24;;;;;;;;;;;16.70;90.90;;;;;;4993977;28;19934;-74
2021/07/01 06:23:49;;;;;;;;;;;16.90;90.90;;;;;;4993703;28;19923;-74
2021/07/01 06:26:15;;;;;;;;;;;16.90;91.10;;;;;;4995082;28;19929;-74
2021/07/01 06:28:42;;;;;;;;;;;17.10;91.00;;;;;;4994003;28;19939;-74
2021/07/01 06:31:08;;;;;;;;;;;17.30;90.90;;;;;;4994793;28;19922;-73
2021/07/01 06:33:34;;;;;;;;;;;17.60;90.60;;;;;;4993835;28;19923;-73
2021/07/01 06:36:00;;;;;;;;;;;17.90;90.50;;;;;;4994598;28;20423;-73
2021/07/01 06:38:25;;;;;;;;;;;18.20;89.90;;;;;;4993493;28;19947;-73
2021/07/01 06:40:51;;;;;;;;;;;18.60;88.80;;;;;;4993702;28;19925;-74
2021/07/01 06:43:20;;;;;;;;;;;18.80;88.40;;;;;;4994557;28;20345;-74
2021/07/01 06:45:45;;;;;;;;;;;19.00;87.70;;;;;;4993612;28;19929;-74
2021/07/01 06:48:11;;;;;;;;;;;19.30;87.40;;;;;;5001728;28;19924;-74
2021/07/01 06:50:36;;;;;;;;;;;19.60;86.70;;;;;;5013171;28;19949;-74
2021/07/01 06:53:02;;;;;;;;;;;20.00;85.70;;;;;;5013013;28;19922;-74
2021/07/01 06:55:28;;;;;;;;;;;20.20;85.00;;;;;;5014024;28;20497;-74
2021/07/01 06:57:54;;;;;;;;;;;20.40;84.70;;;;;;5013900;28;20448;-73
2021/07/01 07:00:20;;;;;;;;;;;20.60;83.30;;;;;;5013069;28;20002;-74
2021/07/01 07:02:45;;;;;;;;;;;20.80;83.10;;;;;;5014295;28;20031;-75
2021/07/01 07:05:11;;;;;;;;;;;21.10;81.30;;;;;;4992562;28;19927;-79
2021/07/01 07:07:39;;;;;;;;;;;21.20;81.90;;;;;;4986030;28;19934;-75
2021/07/01 07:10:04;;;;;;;;;;;21.40;82.20;;;;;;4994456;28;19975;-78
2021/07/01 07:12:31;;;;;;;;;;;21.60;80.70;;;;;;4993761;28;19922;-77
2021/07/01 07:14:56;;;;;;;;;;;21.70;81.20;;;;;;4982377;28;19931;-74
2021/07/01 07:17:23;;;;;;;;;;;21.90;79.20;;;;;;4994488;28;20390;-75
2021/07/01 07:19:49;;;;;;;;;;;21.90;80.60;;;;;;4993475;28;20320;-76
2021/07/01 07:22:15;;;;;;;;;;;21.90;80.10;;;;;;4994081;28;19924;-76
2021/07/01 07:24:41;;;;;;;;;;;22.10;79.50;;;;;;4991410;28;19951;-76
2021/07/01 07:27:06;;;;;;;;;;;22.40;77.20;;;;;;4973801;28;20381;-75
2021/07/01 07:29:34;;;;;;;;;;;22.60;75.00;;;;;;4975850;28;19937;-78
2021/07/01 07:32:00;;;;;;;;;;;22.60;77.10;;;;;;4993995;28;19926;-76
2021/07/01 07:34:26;;;;;;;;;;;22.80;76.60;;;;;;4992406;28;19927;-74
2021/07/01 07:36:51;;;;;;;;;;;22.90;77.40;;;;;;5007837;28;19973;-75
2021/07/01 07:39:17;;;;;;;;;;;22.90;78.60;;;;;;4992080;28;19946;-75
2021/07/01 07:41:42;;;;;;;;;;;22.90;78.90;;;;;;4994191;28;19928;-75
2021/07/01 07:44:08;;;;;;;;;;;22.80;78.20;;;;;;4991011;28;20019;-74
2021/07/01 07:46:34;;;;;;;;;;;22.80;77.30;;;;;;4992922;28;20472;-77
2021/07/01 07:49:00;;;;;;;;;;;23.00;78.50;;;;;;4992121;28;21034;-74
2021/07/01 07:51:27;;;;;;;;;;;23.20;77.20;;;;;;4994260;28;19924;-82
2021/07/01 07:53:54;;;;;;;;;;;23.40;75.40;;;;;;4992184;28;19939;-79
2021/07/01 07:56:27;;;;;;;;;;;24.00;74.10;;;;;;4996405;28;20009;-75
2021/07/01 07:58:54;;;;;;;;;;;24.40;72.40;;;;;;4995426;28;20410;-76
2021/07/01 08:01:19;;;;;;;;;;;24.70;74.10;;;;;;4997111;28;19950;-74
2021/07/01 08:03:45;;;;;;;;;;;24.90;73.00;;;;;;4996577;28;20285;-75
2021/07/01 08:06:10;;;;;;;;;;;25.20;68.60;;;;;;4998349;28;20025;-76
2021/07/01 08:08:36;;;;;;;;;;;25.20;70.70;;;;;;4995460;28;20425;-75
2021/07/01 08:11:06;;;;;;;;;;;25.00;72.40;;;;;;4996896;28;19927;-76
2021/07/01 08:13:32;;;;;;;;;;;25.10;71.00;;;;;;4997534;28;19945;-74
2021/07/01 08:15:58;;;;;;;;;;;25.40;72.60;;;;;;4997838;28;19978;-78
2021/07/01 08:18:37;;;;;;;;;;;25.50;70.30;;;;;;4995620;28;19947;-78
2021/07/01 08:21:03;;;;;;;;;;;25.80;64.90;;;;;;4997955;28;20415;-75
2021/07/01 08:23:28;;;;;;;;;;;26.10;67.00;;;;;;4993738;28;19931;-74
2021/07/01 08:25:54;;;;;;;;;;;26.10;68.40;;;;;;4997907;28;19932;-76
2021/07/01 08:28:20;;;;;;;;;;;26.00;67.40;;;;;;5001122;28;20013;-76
2021/07/01 08:30:46;;;;;;;;;;;26.10;64.90;;;;;;4996538;28;19934;-75
2021/07/01 08:33:11;;;;;;;;;;;26.60;65.40;;;;;;4996165;28;19974;-75
2021/07/01 08:35:37;;;;;;;;;;;26.90;66.90;;;;;;4996136;28;19923;-75
2021/07/01 08:38:03;;;;;;;;;;;27.00;67.30;;;;;;5011876;28;19993;-75
2021/07/01 08:40:35;;;;;;;;;;;27.10;62.80;;;;;;4995007;28;20382;-74
2021/07/01 08:43:01;;;;;;;;;;;27.20;64.40;;;;;;4993840;28;20425;-76
2021/07/01 08:45:29;;;;;;;;;;;28.00;58.70;;;;;;4977569;28;19980;-72
2021/07/01 08:47:59;;;;;;;;;;;28.60;58.60;;;;;;4975599;28;19927;-75
2021/07/01 08:50:25;;;;;;;;;;;28.90;57.10;;;;;;4978082;28;19923;-75
2021/07/01 08:52:53;;;;;;;;;;;28.50;59.70;;;;;;4981239;28;19929;-77
2021/07/01 08:55:19;;;;;;;;;;;28.90;56.50;;;;;;4997432;28;19936;-75
2021/07/01 08:57:49;;;;;;;;;;;29.50;57.10;;;;;;4995030;28;19962;-75
2021/07/01 09:00:15;;;;;;;;;;;29.50;57.10;;;;;;4996075;28;19933;-78
2021/07/01 09:02:46;;;;;;;;;;;28.30;55.60;;;;;;4995096;28;19989;-75
2021/07/01 09:05:16;;;;;;;;;;;27.80;59.80;;;;;;4995753;28;19932;-78
2021/07/01 09:07:45;;;;;;;;;;;27.50;62.80;;;;;;4988926;28;20329;-73
2021/07/01 09:10:10;;;;;;;;;;;26.90;63.20;;;;;;4982995;28;19933;-77
2021/07/01 09:12:41;;;;;;;;;;;26.40;64.30;;;;;;4996512;28;19924;-78
2021/07/01 09:15:08;;;;;;;;;;;27.40;60.50;;;;;;4976534;28;19941;-72
2021/07/01 09:17:34;;;;;;;;;;;28.40;58.70;;;;;;4976298;28;19928;-76
2021/07/01 09:20:01;;;;;;;;;;;28.60;57.60;;;;;;4988383;28;19933;-74
2021/07/01 09:22:26;;;;;;;;;;;27.80;57.10;;;;;;4996573;28;19968;-77
2021/07/01 09:24:52;;;;;;;;;;;26.90;60.70;;;;;;4978373;28;20016;-73
2021/07/01 09:27:18;;;;;;;;;;;26.20;58.50;;;;;;4976108;28;19932;-77
2021/07/01 09:29:44;;;;;;;;;;;26.30;68.30;;;;;;4976362;28;20403;-78
2021/07/01 09:32:10;;;;;;;;;;;27.50;63.10;;;;;;4975925;28;19925;-76
2021/07/01 09:34:35;;;;;;;;;;;28.50;59.20;;;;;;4982085;28;19925;-72
2021/07/01 09:37:01;;;;;;;;;;;29.10;54.70;;;;;;4991321;28;20018;-74
2021/07/01 09:39:27;;;;;;;;;;;30.00;54.30;;;;;;4993143;28;19942;-74
2021/07/01 09:41:57;;;;;;;;;;;30.60;53.60;;;;;;4993500;28;19932;-73
2021/07/01 09:44:23;;;;;;;;;;;30.80;57.00;;;;;;4983222;28;20394;-74
2021/07/01 09:46:49;;;;;;;;;;;31.00;52.90;;;;;;4994722;28;19927;-74
2021/07/01 09:49:17;;;;;;;;;;;31.00;54.40;;;;;;4996405;28;19934;-78
2021/07/01 09:51:43;;;;;;;;;;;30.40;55.70;;;;;;4992997;28;19927;-77
2021/07/01 09:54:08;;;;;;;;;;;31.00;54.40;;;;;;4995042;28;19955;-76
2021/07/01 09:56:37;;;;;;;;;;;31.30;52.80;;;;;;4983870;28;20420;-77
2021/07/01 09:59:04;;;;;;;;;;;31.50;55.00;;;;;;4972493;28;20441;-72
2021/07/01 10:01:31;;;;;;;;;;;31.50;51.90;;;;;;4975495;28;20269;-75
2021/07/01 10:04:00;;;;;;;;;;;30.70;54.90;;;;;;4983428;28;19937;-77
2021/07/01 10:06:26;;;;;;;;;;;29.50;56.20;;;;;;4996355;28;19933;-73
2021/07/01 10:08:52;;;;;;;;;;;28.30;57.10;;;;;;4993972;28;19932;-73
2021/07/01 10:11:38;;;;;;;;;;;27.60;60.30;;;;;;4994821;28;20005;-75
2021/07/01 10:14:04;;;;;;;;;;;27.10;59.50;;;;;;4994911;28;20275;-78
2021/07/01 10:16:31;;;;;;;;;;;27.40;61.00;;;;;;4995086;28;20272;-77
2021/07/01 10:18:57;;;;;;;;;;;26.80;60.50;;;;;;4985743;28;20532;-79
2021/07/01 10:21:22;;;;;;;;;;;26.40;63.90;;;;;;4990264;28;20287;-79
2021/07/01 10:23:49;;;;;;;;;;;26.60;60.30;;;;;;5015181;28;19924;-74
2021/07/01 10:26:16;;;;;;;;;;;28.50;57.70;;;;;;4985634;28;19932;-73
2021/07/01 10:28:41;;;;;;;;;;;30.10;56.30;;;;;;4975242;28;19922;-73
2021/07/01 10:31:09;;;;;;;;;;;30.30;51.50;;;;;;4988204;28;20261;-71
2021/07/01 10:33:36;;;;;;;;;;;29.60;55.00;;;;;;4975249;28;19934;-72
2021/07/01 10:36:03;;;;;;;;;;;29.10;55.40;;;;;;4976212;28;19926;-72
2021/07/01 10:38:41;;;;;;;;;;;28.90;52.90;;;;;;4975536;28;20032;-72
2021/07/01 10:41:07;;;;;;;;;;;28.30;54.90;;;;;;4990755;28;20015;-73
2021/07/01 10:43:38;;;;;;;;;;;27.80;60.00;;;;;;4990845;28;19948;-73
2021/07/01 10:46:04;;;;;;;;;;;28.80;57.10;;;;;;4976175;28;19923;-72
2021/07/01 10:48:29;;;;;;;;;;;30.20;57.00;;;;;;4976137;28;20392;-73
2021/07/01 10:50:55;;;;;;;;;;;30.30;54.00;;;;;;4976244;28;19969;-74
2021/07/01 10:53:24;;;;;;;;;;;30.60;54.70;;;;;;4976005;28;19945;-72
2021/07/01 10:55:49;;;;;;;;;;;31.70;52.10;;;;;;4975586;28;19925;-73
2021/07/01 10:58:15;;;;;;;;;;;32.80;51.60;;;;;;4990787;28;19948;-73
2021/07/01 11:00:42;;;;;;;;;;;33.00;48.70;;;;;;4990422;28;20397;-73
2021/07/01 11:03:11;;;;;;;;;;;32.30;47.60;;;;;;4975437;28;19931;-73
2021/07/01 11:05:37;;;;;;;;;;;31.40;49.40;;;;;;4990068;28;19937;-75
2021/07/01 11:08:02;;;;;;;;;;;31.70;50.40;;;;;;4990375;28;20289;-73
2021/07/01 11:10:35;;;;;;;;;;;33.10;45.20;;;;;;4975351;28;19925;-73
2021/07/01 11:13:09;;;;;;;;;;;34.00;43.80;;;;;;4975010;28;19920;-72
2021/07/01 11:15:55;;;;;;;;;;;33.70;47.70;;;;;;4975049;28;19925;-74
2021/07/01 11:18:31;;;;;;;;;;;33.20;46.70;;;;;;4977355;28;19948;-72
2021/07/01 11:21:22;;;;;;;;;;;31.90;49.90;;;;;;4975270;28;20413;-73
2021/07/01 11:23:52;;;;;;;;;;;30.40;51.80;;;;;;4974626;28;20356;-72
2021/07/01 11:26:24;;;;;;;;;;;28.90;52.60;;;;;;4990454;28;20430;-73
2021/07/01 11:28:50;;;;;;;;;;;28.00;52.90;;;;;;4974875;28;19997;-71
2021/07/01 11:31:15;;;;;;;;;;;27.50;56.30;;;;;;4994165;28;20381;-72
2021/07/01 11:33:41;;;;;;;;;;;27.30;55.20;;;;;;4993982;28;19952;-73
2021/07/01 11:36:07;;;;;;;;;;;27.10;56.00;;;;;;4993863;28;19929;-73
2021/07/01 11:38:33;;;;;;;;;;;27.00;55.90;;;;;;4979024;28;20445;-72
2021/07/01 11:41:04;;;;;;;;;;;26.80;57.60;;;;;;4993797;28;19925;-73
2021/07/01 11:43:33;;;;;;;;;;;26.60;56.00;;;;;;4979021;28;20454;-73
2021/07/01 11:45:58;;;;;;;;;;;26.30;56.70;;;;;;4978671;28;19923;-74
2021/07/01 11:48:24;;;;;;;;;;;26.30;56.80;;;;;;4993664;28;19929;-73
2021/07/01 11:50:50;;;;;;;;;;;26.30;57.30;;;;;;4979154;28;19947;-72
2021/07/01 11:53:19;;;;;;;;;;;26.40;54.90;;;;;;4993838;28;19988;-73
2021/07/01 11:55:46;;;;;;;;;;;26.60;56.00;;;;;;4978256;28;19924;-72
2021/07/01 11:58:11;;;;;;;;;;;26.60;56.60;;;;;;4993991;28;20412;-73
2021/07/01 12:00:37;;;;;;;;;;;26.70;55.70;;;;;;4978652;28;20011;-73
2021/07/01 12:03:03;;;;;;;;;;;26.60;55.90;;;;;;4993964;28;19923;-72
2021/07/01 12:05:28;;;;;;;;;;;26.60;55.90;;;;;;4978380;28;19922;-72
2021/07/01 12:07:54;;;;;;;;;;;26.80;56.10;;;;;;4993663;28;20389;-72
2021/07/01 12:10:19;;;;;;;;;;;26.80;56.20;;;;;;4993321;28;19967;-72
2021/07/01 12:12:45;;;;;;;;;;;26.60;54.60;;;;;;4993291;28;19922;-72
2021/07/01 12:15:14;;;;;;;;;;;26.40;56.10;;;;;;4976884;28;19961;-72
2021/07/01 12:18:00;;;;;;;;;;;26.30;55.60;;;;;;4993017;28;19979;-72
2021/07/01 12:20:26;;;;;;;;;;;26.40;56.40;;;;;;4978320;28;19923;-73
2021/07/01 12:22:53;;;;;;;;;;;26.60;56.50;;;;;;4977989;28;19951;-74
2021/07/01 12:25:25;;;;;;;;;;;26.80;55.40;;;;;;4976712;28;20361;-72
2021/07/01 12:28:09;;;;;;;;;;;26.80;55.20;;;;;;4977954;28;19991;-74
2021/07/01 12:30:57;;;;;;;;;;;26.80;55.30;;;;;;4978455;28;19959;-73
2021/07/01 12:33:43;;;;;;;;;;;26.80;55.30;;;;;;4977824;28;19929;-72
2021/07/01 12:36:20;;;;;;;;;;;26.80;55.30;;;;;;4978053;28;20302;-73
2021/07/01 12:39:10;;;;;;;;;;;26.70;54.50;;;;;;4977961;28;19950;-73
2021/07/01 12:41:39;;;;;;;;;;;26.70;55.80;;;;;;4979383;28;19925;-72
2021/07/01 12:44:08;;;;;;;;;;;26.50;56.10;;;;;;4993295;28;20329;-72
2021/07/01 12:46:43;;;;;;;;;;;26.40;55.50;;;;;;4992699;28;19924;-74
2021/07/01 12:49:15;;;;;;;;;;;26.40;55.30;;;;;;4977828;28;19926;-72
2021/07/01 12:51:40;;;;;;;;;;;26.40;54.50;;;;;;4977474;28;19992;-72
2021/07/01 12:54:27;;;;;;;;;;;26.40;55.10;;;;;;4977643;28;20419;-73
2021/07/01 12:56:56;;;;;;;;;;;26.40;55.60;;;;;;4977200;28;20376;-72
2021/07/01 12:59:25;;;;;;;;;;;26.30;55.20;;;;;;4977308;28;19964;-73
2021/07/01 13:01:51;;;;;;;;;;;26.20;56.10;;;;;;4977349;28;19931;-72
2021/07/01 13:04:26;;;;;;;;;;;26.20;55.20;;;;;;4977300;28;20019;-72
2021/07/01 13:06:56;;;;;;;;;;;26.20;56.20;;;;;;4992275;28;19924;-72
2021/07/01 13:09:31;;;;;;;;;;;26.20;55.10;;;;;;4992235;28;19937;-72
2021/07/01 13:11:57;;;;;;;;;;;26.30;55.70;;;;;;4977424;28;19927;-74
2021/07/01 13:14:26;;;;;;;;;;;26.30;55.00;;;;;;4992098;28;20028;-73
2021/07/01 13:17:01;;;;;;;;;;;26.40;55.30;;;;;;4992301;28;19936;-72
2021/07/01 13:19:26;;;;;;;;;;;26.50;55.10;;;;;;4992497;28;19994;-72
2021/07/01 13:21:53;;;;;;;;;;;26.30;55.20;;;;;;4976928;28;19922;-72
2021/07/01 13:24:19;;;;;;;;;;;26.20;54.90;;;;;;4991876;28;20269;-72
2021/07/01 13:26:45;;;;;;;;;;;26.30;55.40;;;;;;4976887;28;19926;-72
2021/07/01 13:29:11;;;;;;;;;;;26.30;54.80;;;;;;4977538;28;19921;-72
2021/07/01 13:31:36;;;;;;;;;;;26.40;54.70;;;;;;4992014;28;20033;-72
2021/07/01 13:34:03;;;;;;;;;;;26.30;54.70;;;;;;4976762;28;19923;-73
2021/07/01 13:36:28;;;;;;;;;;;26.30;55.00;;;;;;4976761;28;19920;-72
2021/07/01 13:38:54;;;;;;;;;;;26.00;54.40;;;;;;4976572;28;19947;-72
2021/07/01 13:41:25;;;;;;;;;;;25.90;55.30;;;;;;4977168;28;20295;-72
2021/07/01 13:43:51;;;;;;;;;;;26.00;54.20;;;;;;4991655;28;19923;-74
2021/07/01 13:46:16;;;;;;;;;;;25.90;55.00;;;;;;4977045;28;19927;-73
2021/07/01 13:48:42;;;;;;;;;;;25.70;55.70;;;;;;4991454;28;19932;-74
2021/07/01 13:51:07;;;;;;;;;;;25.60;56.20;;;;;;4976439;28;19951;-73
2021/07/01 13:53:34;;;;;;;;;;;25.50;55.50;;;;;;4975695;28;19940;-72
2021/07/01 13:56:03;;;;;;;;;;;25.40;56.10;;;;;;4991454;28;20001;-72
2021/07/01 13:58:30;;;;;;;;;;;25.40;56.60;;;;;;4976481;28;19995;-72
2021/07/01 14:00:56;;;;;;;;;;;25.60;56.20;;;;;;4991542;28;19931;-72
2021/07/01 14:03:22;;;;;;;;;;;25.60;56.40;;;;;;4991184;28;19925;-73
2021/07/01 14:05:48;;;;;;;;;;;25.60;55.50;;;;;;4976401;28;19923;-73
2021/07/01 14:08:22;;;;;;;;;;;25.70;56.30;;;;;;4976105;28;20400;-73
2021/07/01 14:10:54;;;;;;;;;;;25.70;55.40;;;;;;4991584;28;20274;-74
2021/07/01 14:13:19;;;;;;;;;;;25.80;55.60;;;;;;4991048;28;19931;-72
2021/07/01 14:15:45;;;;;;;;;;;25.70;54.50;;;;;;4976230;28;19923;-73
2021/07/01 14:18:11;;;;;;;;;;;25.80;55.60;;;;;;4990852;28;19943;-73
2021/07/01 14:20:36;;;;;;;;;;;25.90;55.10;;;;;;4975864;28;19926;-72